Time;durP1;ratioP1;P1;durP2;ratioP2;P2;SDS_P1;SDS_P2;PMS_P1;PMS_P2;Temp;Humidity;BMP_temperature;BMP_pressure;BME280_temperature;BME280_humidity;BME280_pressure;Samples;Min_cycle;Max_cycle;Signal;HPM_P1;HPM_P2
2021/08/25 00:00:43;;;;;;;5.70;5.20;;;;;;;15.54;67.27;97926.81;4914765;29;20079;-77
2021/08/25 00:03:08;;;;;;;7.85;5.30;;;;;;;15.52;66.78;97923.66;4915052;29;20042;-77
2021/08/25 00:05:33;;;;;;;6.35;4.90;;;;;;;15.48;67.33;97920.75;4914964;29;20039;-77
2021/08/25 00:07:59;;;;;;;5.53;4.72;;;;;;;15.46;67.20;97925.47;4930670;29;20119;-77
2021/08/25 00:10:24;;;;;;;6.68;5.35;;;;;;;15.46;67.28;97922.84;4917963;29;20094;-77
2021/08/25 00:12:50;;;;;;;5.40;4.88;;;;;;;15.45;67.47;97921.25;4902474;29;20035;-77
2021/08/25 00:15:15;;;;;;;6.43;5.40;;;;;;;15.42;66.85;97913.94;4904351;29;20053;-77
2021/08/25 00:17:40;;;;;;;6.07;5.15;;;;;;;15.41;67.23;97904.47;4884030;29;20031;-77
2021/08/25 00:20:06;;;;;;;7.28;5.50;;;;;;;15.36;67.20;97907.06;4899185;29;20035;-77
2021/08/25 00:22:32;;;;;;;6.72;5.22;;;;;;;15.37;67.27;97911.28;4901013;29;20078;-77
2021/08/25 00:24:57;;;;;;;6.43;5.82;;;;;;;15.33;67.47;97913.59;4899324;29;20166;-77
2021/08/25 00:27:22;;;;;;;6.60;5.20;;;;;;;15.31;67.46;97909.69;4915139;29;20036;-77
2021/08/25 00:29:48;;;;;;;10.30;6.10;;;;;;;15.26;67.72;97902.56;4931648;29;20039;-77
2021/08/25 00:32:13;;;;;;;7.72;5.75;;;;;;;15.25;67.60;97908.88;4914081;29;20030;-77
2021/08/25 00:34:38;;;;;;;7.50;5.80;;;;;;;15.24;67.48;97903.88;4883492;29;20032;-77
2021/08/25 00:37:04;;;;;;;6.90;5.50;;;;;;;15.26;67.74;97897.31;4914824;29;20110;-76
2021/08/25 00:39:29;;;;;;;7.15;5.32;;;;;;;15.22;67.59;97895.47;4898344;29;20047;-77
2021/08/25 00:41:56;;;;;;;6.55;5.53;;;;;;;15.27;67.26;97893.66;4931132;29;20027;-77
2021/08/25 00:44:21;;;;;;;6.55;5.85;;;;;;;15.31;67.19;97888.69;4918212;29;20038;-77
2021/08/25 00:46:47;;;;;;;7.20;5.65;;;;;;;15.28;67.24;97895.22;4917975;29;20032;-77
2021/08/25 00:49:14;;;;;;;8.25;5.43;;;;;;;15.15;67.26;97886.00;4918139;29;20118;-77
2021/08/25 00:51:42;;;;;;;7.28;5.53;;;;;;;15.21;67.68;97888.66;4918084;29;20028;-77
2021/08/25 00:54:07;;;;;;;7.05;5.45;;;;;;;15.17;67.24;97889.16;4919550;29;20050;-77
2021/08/25 00:56:33;;;;;;;8.48;6.07;;;;;;;15.17;67.59;97889.16;4887366;29;20032;-77
2021/08/25 00:58:58;;;;;;;6.35;5.35;;;;;;;15.10;67.79;97888.59;4883892;29;20372;-77
2021/08/25 01:04:08;;;;;;;6.22;5.13;;;;;;;14.82;68.07;97888.97;4990969;23;20081;-77
2021/08/25 01:06:35;;;;;;;7.68;5.90;;;;;;;14.96;67.99;97890.91;4925904;28;20618;-77
2021/08/25 01:09:03;;;;;;;7.38;5.50;;;;;;;14.87;68.07;97894.25;4955989;28;20040;-76
2021/08/25 01:11:34;;;;;;;8.48;6.07;;;;;;;14.83;68.48;97886.09;4939885;28;20049;-76
2021/08/25 01:14:01;;;;;;;7.60;6.57;;;;;;;14.84;68.43;97898.19;4939346;28;20444;-76
2021/08/25 01:16:27;;;;;;;14.40;7.38;;;;;;;14.94;68.34;97889.56;4924099;28;20122;-77
2021/08/25 01:18:55;;;;;;;8.70;6.57;;;;;;;14.88;68.06;97890.59;4955681;28;20162;-77
2021/08/25 01:21:21;;;;;;;7.70;6.43;;;;;;;14.95;68.19;97884.06;4955634;28;20034;-77
2021/08/25 01:23:49;;;;;;;7.85;6.60;;;;;;;14.98;67.83;97896.69;4955282;28;20034;-77
2021/08/25 01:26:15;;;;;;;8.13;6.75;;;;;;;15.11;67.83;97892.81;4940131;28;20046;-77
2021/08/25 01:28:52;;;;;;;8.07;6.32;;;;;;;14.94;67.86;97884.31;4924038;28;20038;-77
2021/08/25 01:31:22;;;;;;;8.30;6.45;;;;;;;14.96;67.83;97879.63;4955581;28;20031;-77
2021/08/25 01:33:47;;;;;;;9.88;7.03;;;;;;;15.12;67.57;97880.47;4939286;28;20101;-77
2021/08/25 01:36:17;;;;;;;9.32;7.28;;;;;;;15.10;67.82;97872.09;4921182;29;20126;-77
2021/08/25 01:38:51;;;;;;;13.18;7.88;;;;;;;14.98;67.89;97875.69;4920736;29;20027;-77
2021/08/25 01:41:24;;;;;;;8.55;6.30;;;;;;;14.99;67.74;97863.38;4920687;29;20046;-76
2021/08/25 01:43:54;;;;;;;8.25;6.90;;;;;;;15.04;67.90;97867.84;4904057;29;20187;-76
2021/08/25 01:46:36;;;;;;;8.18;6.60;;;;;;;14.92;67.53;97873.31;4920620;29;20126;-77
2021/08/25 01:49:05;;;;;;;10.07;6.72;;;;;;;14.99;67.88;97871.22;4935685;29;20038;-77
2021/08/25 01:51:30;;;;;;;8.63;6.60;;;;;;;14.97;67.84;97861.00;4922679;28;20122;-77
2021/08/25 01:53:59;;;;;;;9.23;7.10;;;;;;;14.94;67.65;97864.16;4937409;28;20146;-77
2021/08/25 01:56:25;;;;;;;8.27;6.93;;;;;;;14.95;67.89;97854.44;4939438;28;20031;-77
2021/08/25 01:58:52;;;;;;;9.30;7.35;;;;;;;14.94;67.82;97860.72;4972488;28;20034;-77
2021/08/25 02:01:17;;;;;;;14.70;7.47;;;;;;;14.87;68.28;97862.78;4938788;28;20035;-77
2021/08/25 02:03:43;;;;;;;8.98;6.97;;;;;;;14.83;68.08;97856.50;4954674;28;20181;-77
2021/08/25 02:06:08;;;;;;;8.38;6.82;;;;;;;14.85;68.18;97868.28;4922761;28;20038;-77
2021/08/25 02:08:33;;;;;;;9.55;7.80;;;;;;;14.84;68.45;97860.66;4938978;28;20042;-76
2021/08/25 02:10:59;;;;;;;8.45;6.75;;;;;;;14.79;68.46;97854.38;4938898;28;20165;-76
2021/08/25 02:13:25;;;;;;;8.80;6.70;;;;;;;14.81;68.62;97854.13;4922760;28;20466;-77
2021/08/25 02:15:50;;;;;;;9.50;6.97;;;;;;;14.81;68.41;97850.72;4954822;28;20039;-76
2021/08/25 02:18:16;;;;;;;8.93;7.15;;;;;;;14.75;68.45;97860.38;4954461;28;20038;-77
2021/08/25 02:20:41;;;;;;;8.68;7.05;;;;;;;14.67;68.65;97843.31;4938599;28;20042;-77
2021/08/25 02:23:07;;;;;;;9.30;6.97;;;;;;;14.84;68.26;97848.38;4954414;28;20042;-77
2021/08/25 02:25:32;;;;;;;8.88;7.03;;;;;;;14.73;68.20;97844.09;4938725;28;20529;-77
2021/08/25 02:27:57;;;;;;;8.73;6.82;;;;;;;14.70;68.21;97848.03;4935203;29;20066;-77
2021/08/25 02:30:23;;;;;;;10.07;7.30;;;;;;;14.68;68.39;97849.31;4935379;29;20042;-77
2021/08/25 02:32:48;;;;;;;8.88;7.10;;;;;;;14.74;68.39;97853.56;4918930;29;20530;-77
2021/08/25 02:35:14;;;;;;;7.78;6.80;;;;;;;14.74;68.35;97848.31;4935529;29;20458;-76
2021/08/25 02:37:39;;;;;;;8.27;7.03;;;;;;;14.73;68.60;97839.66;4952638;29;20039;-77
2021/08/25 02:40:06;;;;;;;9.32;7.57;;;;;;;14.68;68.07;97847.47;4935182;29;20038;-77
2021/08/25 02:42:32;;;;;;;9.77;7.18;;;;;;;14.67;68.66;97847.72;4927711;29;20031;-77
2021/08/25 02:44:57;;;;;;;8.00;7.03;;;;;;;14.61;68.88;97844.31;4919411;29;20354;-77
2021/08/25 02:47:22;;;;;;;7.95;7.07;;;;;;;14.58;69.04;97839.53;4951023;29;20035;-77
2021/08/25 02:49:48;;;;;;;9.98;7.13;;;;;;;14.52;68.83;97840.56;4935058;29;20551;-77
2021/08/25 02:52:13;;;;;;;10.85;7.95;;;;;;;14.48;69.09;97840.28;4937027;28;20023;-77
2021/08/25 02:54:38;;;;;;;10.60;7.82;;;;;;;14.46;69.02;97838.94;4971531;28;20473;-77
2021/08/25 02:57:04;;;;;;;10.43;7.10;;;;;;;14.46;69.22;97838.94;4938043;28;20110;-76
2021/08/25 02:59:29;;;;;;;10.88;7.95;;;;;;;14.39;69.13;97839.16;4945210;29;20045;-77
2021/08/25 03:01:55;;;;;;;10.55;8.48;;;;;;;14.34;69.31;97834.69;4918575;28;20418;-77
2021/08/25 03:04:20;;;;;;;10.60;8.15;;;;;;;14.35;68.70;97831.00;4934990;29;20072;-77
2021/08/25 03:06:45;;;;;;;10.55;7.82;;;;;;;14.28;68.77;97833.06;4940558;28;20117;-77
2021/08/25 03:09:12;;;;;;;8.18;7.10;;;;;;;14.22;69.33;97831.44;4921777;28;20023;-77
2021/08/25 03:11:37;;;;;;;10.85;7.35;;;;;;;14.13;69.46;97828.50;4953979;28;20038;-76
2021/08/25 03:14:05;;;;;;;10.40;8.20;;;;;;;14.12;69.67;97826.13;4971041;28;20038;-76
2021/08/25 03:16:31;;;;;;;10.27;7.93;;;;;;;14.10;69.69;97822.97;4921999;28;20081;-77
2021/08/25 03:18:57;;;;;;;11.40;7.95;;;;;;;14.10;69.71;97821.16;4953499;28;20061;-77
2021/08/25 03:21:22;;;;;;;8.82;7.50;;;;;;;14.14;69.46;97818.84;4953628;28;20023;-76
2021/08/25 03:23:47;;;;;;;11.55;7.80;;;;;;;14.13;69.55;97809.41;4937650;28;20031;-77
2021/08/25 03:26:13;;;;;;;12.25;8.25;;;;;;;14.13;69.26;97815.41;4936976;28;20055;-77
2021/08/25 03:28:38;;;;;;;10.73;7.63;;;;;;;14.02;69.50;97811.16;4937330;28;20056;-77
2021/08/25 03:31:04;;;;;;;10.45;7.43;;;;;;;14.07;69.39;97811.19;4952678;28;20077;-77
2021/08/25 03:33:29;;;;;;;9.20;7.32;;;;;;;14.00;69.16;97802.75;4953071;28;20126;-77
2021/08/25 03:35:55;;;;;;;9.40;7.40;;;;;;;13.98;69.31;97805.63;4953320;28;20118;-77
2021/08/25 03:38:20;;;;;;;10.15;7.40;;;;;;;13.86;69.64;97803.19;4937199;28;20529;-77
2021/08/25 03:40:45;;;;;;;10.52;8.25;;;;;;;13.89;70.13;97811.56;4953408;28;20049;-77
2021/08/25 03:43:11;;;;;;;10.35;7.50;;;;;;;13.82;69.76;97796.06;4936641;28;20102;-76
2021/08/25 03:45:36;;;;;;;9.70;7.35;;;;;;;13.82;70.03;97796.06;4937154;28;20034;-76
2021/08/25 03:48:02;;;;;;;12.13;7.20;;;;;;;13.81;70.24;97802.34;4936804;28;20389;-77
2021/08/25 03:50:27;;;;;;;9.68;7.40;;;;;;;13.84;70.13;97805.25;4952866;28;20821;-77
2021/08/25 03:52:52;;;;;;;9.10;7.28;;;;;;;13.84;70.10;97794.00;4933308;29;20024;-77
2021/08/25 03:55:18;;;;;;;8.88;7.97;;;;;;;13.73;69.68;97794.97;4933539;29;20038;-76
2021/08/25 03:57:43;;;;;;;13.98;8.93;;;;;;;13.68;70.49;97791.25;4918109;29;20024;-77
2021/08/25 04:00:09;;;;;;;11.82;8.23;;;;;;;13.67;70.59;97791.50;4933600;29;20043;-77
2021/08/25 04:02:34;;;;;;;10.70;8.40;;;;;;;13.71;70.48;97791.78;4933202;29;20042;-77
2021/08/25 04:05:00;;;;;;;11.07;8.48;;;;;;;13.67;70.48;97794.91;4933542;29;20028;-77
2021/08/25 04:07:25;;;;;;;9.32;7.45;;;;;;;13.68;70.15;97793.88;4948165;28;20071;-76
2021/08/25 04:09:51;;;;;;;11.88;9.50;;;;;;;13.60;71.17;97798.75;4955932;28;20065;-77
2021/08/25 04:12:16;;;;;;;10.70;8.10;;;;;;;13.55;70.66;97794.25;4955174;28;20050;-77
2021/08/25 04:14:41;;;;;;;10.55;8.52;;;;;;;13.58;70.39;97801.63;4972017;28;20049;-77
2021/08/25 04:17:07;;;;;;;11.88;8.98;;;;;;;13.52;70.44;97805.25;4971384;28;20061;-77
2021/08/25 04:19:33;;;;;;;10.13;8.02;;;;;;;13.55;70.24;97798.72;4972319;28;20034;-77
2021/08/25 04:21:59;;;;;;;12.27;8.60;;;;;;;13.61;70.23;97805.59;4961311;28;20038;-77
2021/08/25 04:24:24;;;;;;;12.35;9.35;;;;;;;13.57;70.19;97800.06;4921025;28;20027;-77
2021/08/25 04:26:50;;;;;;;11.35;8.57;;;;;;;13.59;70.35;97805.03;4936648;28;20501;-77
2021/08/25 04:29:15;;;;;;;11.65;9.00;;;;;;;13.57;70.69;97802.69;4936661;28;20038;-77
2021/08/25 04:31:41;;;;;;;11.50;9.18;;;;;;;13.52;70.92;97797.41;4952173;28;20540;-77
2021/08/25 04:34:09;;;;;;;10.80;8.75;;;;;;;13.46;70.55;97790.53;4950287;28;20467;-77
2021/08/25 04:36:34;;;;;;;12.35;8.38;;;;;;;13.53;70.32;97782.47;4933676;29;20482;-77
2021/08/25 04:38:59;;;;;;;12.52;8.75;;;;;;;13.57;70.75;97794.81;4917523;29;20043;-77
2021/08/25 04:41:25;;;;;;;10.27;8.40;;;;;;;13.49;70.87;97782.97;4933499;29;20297;-76
2021/08/25 04:43:50;;;;;;;11.88;8.88;;;;;;;13.51;70.62;97784.56;4950032;29;20035;-77
2021/08/25 04:46:18;;;;;;;10.95;8.95;;;;;;;13.37;70.66;97784.19;4949122;29;20031;-77
2021/08/25 04:48:44;;;;;;;10.05;8.27;;;;;;;13.49;70.76;97788.19;4917408;29;20027;-77
2021/08/25 04:51:11;;;;;;;12.43;8.88;;;;;;;13.41;71.07;97788.66;4918634;28;20042;-77
2021/08/25 04:53:36;;;;;;;10.80;8.20;;;;;;;13.41;70.94;97787.88;4920251;28;20181;-76
2021/08/25 04:56:02;;;;;;;10.73;8.93;;;;;;;13.39;70.79;97789.94;4952382;28;20126;-77
2021/08/25 04:58:27;;;;;;;11.05;8.60;;;;;;;13.44;70.62;97792.59;4952404;28;20073;-76
2021/08/25 05:00:53;;;;;;;13.07;9.55;;;;;;;13.43;70.68;97793.63;4935486;28;20540;-78
2021/08/25 05:03:18;;;;;;;15.50;9.02;;;;;;;13.48;70.88;97806.75;4952471;28;20516;-78
2021/08/25 05:05:43;;;;;;;11.18;7.93;;;;;;;13.39;70.93;97813.47;4921061;28;20108;-78
2021/08/25 05:08:09;;;;;;;12.38;8.50;;;;;;;13.42;70.44;97810.38;4952977;28;20043;-79
2021/08/25 05:10:34;;;;;;;11.38;8.48;;;;;;;13.40;70.60;97815.03;4953007;28;20027;-78
2021/08/25 05:12:59;;;;;;;12.70;9.10;;;;;;;13.33;71.24;97810.00;4953382;28;20477;-78
2021/08/25 05:15:25;;;;;;;12.65;8.93;;;;;;;13.36;71.39;97808.75;4938239;28;20490;-78
2021/08/25 05:17:50;;;;;;;13.82;9.10;;;;;;;13.35;71.12;97809.75;4971514;28;20081;-78
2021/08/25 05:20:16;;;;;;;12.30;9.35;;;;;;;13.38;71.59;97806.66;4956267;28;20042;-78
2021/08/25 05:22:41;;;;;;;14.20;9.18;;;;;;;13.32;71.95;97810.28;4939077;28;20072;-78
2021/08/25 05:25:07;;;;;;;14.68;9.65;;;;;;;13.41;72.14;97808.78;4956881;28;20077;-78
2021/08/25 05:27:33;;;;;;;14.05;10.50;;;;;;;13.41;72.09;97804.34;4939525;28;20540;-78
2021/08/25 05:29:58;;;;;;;13.80;9.75;;;;;;;13.51;71.85;97815.97;4976381;28;20038;-78
2021/08/25 05:32:23;;;;;;;15.20;10.15;;;;;;;13.48;72.13;97822.44;4943044;28;20321;-78
2021/08/25 05:34:49;;;;;;;13.75;10.20;;;;;;;13.51;72.19;97821.19;4929138;28;20050;-78
2021/08/25 05:37:14;;;;;;;16.50;11.27;;;;;;;13.59;72.16;97816.28;4945283;28;20389;-78
2021/08/25 05:39:40;;;;;;;15.43;10.38;;;;;;;13.74;72.02;97817.47;4928858;28;20105;-78
2021/08/25 05:42:05;;;;;;;14.13;10.48;;;;;;;13.85;71.99;97821.75;4943585;28;20065;-78
2021/08/25 05:44:30;;;;;;;15.10;10.13;;;;;;;13.90;71.71;97818.38;4942924;28;20039;-77
2021/08/25 05:46:57;;;;;;;15.00;10.68;;;;;;;13.89;71.85;97822.81;4959639;28;20513;-78
2021/08/25 05:49:23;;;;;;;15.15;10.68;;;;;;;13.97;71.48;97827.59;4942998;28;20038;-78
2021/08/25 05:51:48;;;;;;;15.52;10.60;;;;;;;13.98;71.36;97823.16;4957983;28;20042;-78
2021/08/25 05:54:14;;;;;;;15.88;9.88;;;;;;;14.05;71.47;97815.88;4958042;28;20035;-78
2021/08/25 05:56:40;;;;;;;12.27;9.45;;;;;;;14.16;71.51;97827.22;4943271;28;20487;-78
2021/08/25 05:59:05;;;;;;;14.50;9.77;;;;;;;14.24;71.38;97818.91;4959256;28;20027;-78
2021/08/25 06:01:31;;;;;;;12.13;8.50;;;;;;;14.24;71.89;97818.91;4959682;28;20497;-78
2021/08/25 06:03:56;;;;;;;12.93;9.57;;;;;;;14.26;71.59;97806.34;4959658;28;20031;-78
2021/08/25 06:06:22;;;;;;;12.60;10.27;;;;;;;14.30;71.79;97810.03;4959241;28;20027;-78
2021/08/25 06:08:47;;;;;;;11.43;9.68;;;;;;;14.38;71.53;97820.03;4959242;28;20058;-78
2021/08/25 06:11:13;;;;;;;14.48;9.10;;;;;;;14.38;71.37;97814.81;4959697;28;20030;-78
2021/08/25 06:13:39;;;;;;;11.95;9.35;;;;;;;14.48;71.27;97810.66;4942188;28;20023;-78
2021/08/25 06:16:05;;;;;;;14.00;9.63;;;;;;;14.63;70.53;97809.97;4958688;28;20367;-77
2021/08/25 06:18:31;;;;;;;12.38;8.95;;;;;;;14.48;71.16;97816.69;4927029;28;20065;-77
2021/08/25 06:20:56;;;;;;;10.02;7.68;;;;;;;14.53;71.22;97813.28;4943332;28;20031;-78
2021/08/25 06:23:22;;;;;;;11.88;8.00;;;;;;;14.54;71.02;97817.50;4926575;28;20031;-77
2021/08/25 06:25:50;;;;;;;11.93;8.00;;;;;;;14.76;71.16;97826.03;4943344;28;20034;-78
2021/08/25 06:28:15;;;;;;;11.57;7.72;;;;;;;14.84;70.82;97818.72;4926474;28;20037;-77
2021/08/25 06:30:41;;;;;;;11.75;8.02;;;;;;;14.96;70.50;97819.31;4943471;28;20680;-78
2021/08/25 06:33:07;;;;;;;10.30;7.35;;;;;;;15.06;70.57;97818.56;4959489;28;20044;-77
2021/08/25 06:35:32;;;;;;;8.90;7.68;;;;;;;15.10;70.27;97824.88;4927844;28;20045;-78
2021/08/25 06:37:58;;;;;;;10.10;8.57;;;;;;;15.21;69.89;97817.81;4958721;28;20117;-78
2021/08/25 06:40:26;;;;;;;9.15;7.57;;;;;;;15.24;69.50;97817.31;4942255;28;20023;-77
2021/08/25 06:42:51;;;;;;;8.93;7.50;;;;;;;15.43;69.07;97817.63;4957747;28;20085;-78
2021/08/25 06:45:23;;;;;;;10.35;7.88;;;;;;;15.50;69.04;97824.16;4942452;28;20534;-78
2021/08/25 06:47:49;;;;;;;8.45;7.15;;;;;;;15.70;67.79;97797.16;4924535;28;20406;-78
2021/08/25 06:50:14;;;;;;;10.35;6.95;;;;;;;15.68;68.11;97824.75;4941136;28;20041;-78
2021/08/25 06:52:40;;;;;;;8.77;7.05;;;;;;;15.84;67.66;97826.34;4940247;28;20034;-78
2021/08/25 06:55:05;;;;;;;8.63;6.55;;;;;;;15.81;67.30;97812.97;4932254;28;20043;-78
2021/08/25 06:57:31;;;;;;;8.77;6.63;;;;;;;15.91;67.20;97810.34;4941019;28;20035;-78
2021/08/25 06:59:58;;;;;;;9.15;6.82;;;;;;;16.21;66.81;97817.41;4923620;28;20565;-78
2021/08/25 07:02:23;;;;;;;8.02;6.38;;;;;;;16.31;66.68;97805.31;4933519;28;20074;-78
2021/08/25 07:04:48;;;;;;;7.90;6.05;;;;;;;16.55;66.26;97811.53;4949293;28;20070;-78
2021/08/25 07:07:14;;;;;;;9.55;6.32;;;;;;;16.67;65.55;97803.38;4943139;28;20043;-78
2021/08/25 07:09:40;;;;;;;6.63;5.90;;;;;;;16.94;64.78;97810.91;4943432;28;20404;-78
2021/08/25 07:12:06;;;;;;;6.80;5.60;;;;;;;17.09;64.31;97806.66;4922821;28;20058;-78
2021/08/25 07:14:32;;;;;;;7.15;5.60;;;;;;;17.31;63.80;97798.41;4934204;28;20105;-78
2021/08/25 07:16:57;;;;;;;6.40;5.35;;;;;;;17.63;63.12;97799.75;4934341;28;20142;-78
2021/08/25 07:19:23;;;;;;;7.10;5.55;;;;;;;17.72;62.51;97795.50;4952857;28;20464;-78
2021/08/25 07:21:48;;;;;;;6.22;5.32;;;;;;;17.85;62.07;97802.72;4952709;28;20444;-78
2021/08/25 07:24:14;;;;;;;5.50;4.93;;;;;;;17.76;61.97;97807.03;4953647;28;20520;-79
2021/08/25 07:26:40;;;;;;;6.70;5.40;;;;;;;17.68;62.53;97799.72;4923425;28;20117;-78
2021/08/25 07:29:05;;;;;;;6.80;5.20;;;;;;;17.98;61.45;97792.69;4954626;28;20041;-78
2021/08/25 07:31:31;;;;;;;6.00;5.00;;;;;;;17.92;61.49;97805.09;4960427;28;20474;-78
2021/08/25 07:33:56;;;;;;;7.38;4.93;;;;;;;18.12;61.18;97807.53;4952451;28;20033;-78
2021/08/25 07:36:23;;;;;;;5.85;4.70;;;;;;;18.38;60.17;97809.94;4954822;28;20085;-78
2021/08/25 07:38:49;;;;;;;7.35;5.35;;;;;;;18.32;59.99;97805.78;4937705;28;20077;-78
2021/08/25 07:41:14;;;;;;;7.55;4.93;;;;;;;18.19;59.85;97807.22;4954030;28;20452;-77
2021/08/25 07:43:40;;;;;;;6.53;5.68;;;;;;;18.17;60.14;97806.72;4938627;28;20022;-77
2021/08/25 07:46:05;;;;;;;6.70;5.50;;;;;;;18.44;60.23;97805.38;4956708;28;20026;-77
2021/08/25 07:48:31;;;;;;;6.22;4.82;;;;;;;18.68;58.90;97806.19;4942786;28;20034;-78
2021/08/25 07:50:56;;;;;;;5.97;5.15;;;;;;;18.58;58.93;97813.44;4920710;28;20481;-77
2021/08/25 07:53:22;;;;;;;6.18;4.93;;;;;;;18.84;58.69;97806.81;4920422;28;20042;-77
2021/08/25 07:55:50;;;;;;;5.05;4.55;;;;;;;18.88;58.16;97799.94;4938858;28;20034;-78
2021/08/25 07:58:15;;;;;;;5.65;4.70;;;;;;;18.92;57.67;97791.44;4946355;28;20425;-77
2021/08/25 08:00:42;;;;;;;5.38;4.45;;;;;;;19.08;57.89;97792.81;4937128;28;20160;-78
2021/08/25 08:03:08;;;;;;;5.38;4.60;;;;;;;19.28;58.02;97797.03;4936878;28;20042;-78
2021/08/25 08:05:36;;;;;;;6.55;4.68;;;;;;;19.22;56.90;97792.88;4937702;28;20410;-78
2021/08/25 08:08:02;;;;;;;5.20;4.50;;;;;;;19.34;56.65;97784.53;4970566;28;20031;-78
2021/08/25 08:10:27;;;;;;;5.22;4.63;;;;;;;19.54;57.37;97792.16;4940463;28;20537;-79
2021/08/25 08:12:53;;;;;;;6.65;4.40;;;;;;;19.58;56.52;97793.16;4918237;28;20038;-78
2021/08/25 08:15:18;;;;;;;6.05;4.75;;;;;;;19.68;56.20;97791.44;4936160;28;20117;-79
2021/08/25 08:17:46;;;;;;;5.68;4.60;;;;;;;20.06;55.43;97786.09;4936630;28;20165;-79
2021/08/25 08:20:14;;;;;;;5.00;4.50;;;;;;;20.13;55.64;97784.63;4924154;28;20034;-78
2021/08/25 08:22:40;;;;;;;7.15;4.53;;;;;;;20.24;55.02;97784.44;4932721;28;20038;-79
2021/08/25 08:25:05;;;;;;;4.97;4.47;;;;;;;20.66;54.54;97775.47;4920504;28;20026;-80
2021/08/25 08:27:31;;;;;;;4.68;4.28;;;;;;;20.77;53.71;97776.06;4936336;28;20070;-79
2021/08/25 08:29:57;;;;;;;5.13;3.70;;;;;;;21.09;53.22;97772.47;4952311;28;20122;-79
2021/08/25 08:32:23;;;;;;;4.80;3.88;;;;;;;21.08;52.04;97778.84;4935319;28;20081;-79
2021/08/25 08:34:48;;;;;;;4.45;4.03;;;;;;;21.00;53.27;97776.91;4936412;28;20031;-79
2021/08/25 08:37:14;;;;;;;5.13;4.25;;;;;;;21.23;53.09;97776.94;4920012;28;20031;-80
2021/08/25 08:39:39;;;;;;;7.65;4.45;;;;;;;21.34;52.69;97783.59;4950624;28;20496;-79
2021/08/25 08:42:04;;;;;;;4.68;4.05;;;;;;;21.85;51.07;97777.13;4926498;28;20027;-80
2021/08/25 08:44:31;;;;;;;5.00;4.22;;;;;;;21.83;51.38;97787.25;4951859;28;20038;-80
2021/08/25 08:46:56;;;;;;;4.82;4.32;;;;;;;21.85;51.46;97784.28;4936379;28;20054;-79
2021/08/25 08:49:22;;;;;;;5.22;4.18;;;;;;;21.79;51.07;97793.44;4936011;28;20031;-79
2021/08/25 08:51:51;;;;;;;6.25;4.30;;;;;;;21.91;50.55;97774.34;4916981;28;20054;-79
2021/08/25 08:54:19;;;;;;;4.32;3.83;;;;;;;22.16;50.16;97771.03;4920097;28;20050;-80
2021/08/25 08:56:45;;;;;;;4.72;4.05;;;;;;;22.27;50.11;97776.84;4936069;28;20039;-80
2021/08/25 08:59:11;;;;;;;5.88;4.00;;;;;;;22.36;49.93;97771.59;4969371;28;20622;-79
2021/08/25 09:01:37;;;;;;;4.38;3.80;;;;;;;22.66;48.78;97774.53;4929949;29;20066;-80
2021/08/25 09:04:02;;;;;;;4.75;3.95;;;;;;;22.41;48.85;97772.25;4936313;28;20453;-79
2021/08/25 09:06:46;;;;;;;5.65;4.07;;;;;;;21.99;48.87;97777.03;4944407;28;20049;-80
2021/08/25 09:09:14;;;;;;;4.05;3.58;;;;;;;22.47;49.15;97780.09;4959012;28;20077;-79
2021/08/25 09:11:56;;;;;;;4.10;3.63;;;;;;;22.33;48.18;97769.56;4935260;28;20120;-79
2021/08/25 09:14:28;;;;;;;7.38;3.92;;;;;;;22.82;48.11;97770.31;4935676;29;20043;-80
2021/08/25 09:17:01;;;;;;;6.45;3.70;;;;;;;22.70;47.49;97764.84;4936238;29;20058;-79
2021/08/25 09:19:34;;;;;;;6.40;4.15;;;;;;;22.88;46.47;97763.00;4936127;29;20039;-80
2021/08/25 09:22:00;;;;;;;4.22;3.83;;;;;;;23.30;47.12;97782.75;4912037;28;20038;-79
2021/08/25 09:24:42;;;;;;;3.80;3.42;;;;;;;22.42;47.21;97779.13;4923034;28;20152;-80
2021/08/25 09:27:16;;;;;;;5.63;3.83;;;;;;;22.39;47.00;97768.34;4923430;28;20027;-79
2021/08/25 09:29:43;;;;;;;4.60;3.90;;;;;;;22.33;47.92;97774.84;4935883;29;20082;-79
2021/08/25 09:32:28;;;;;;;4.75;3.65;;;;;;;22.54;46.48;97775.09;4928247;28;20031;-80
2021/08/25 09:34:55;;;;;;;4.35;3.80;;;;;;;22.62;46.66;97769.81;4923138;28;20030;-79
2021/08/25 09:37:21;;;;;;;4.28;3.88;;;;;;;23.14;46.85;97771.81;4935036;29;20375;-80
2021/08/25 09:39:49;;;;;;;5.25;3.65;;;;;;;22.75;47.39;97770.78;4936046;29;20027;-79
2021/08/25 09:42:18;;;;;;;5.20;3.60;;;;;;;22.80;47.06;97775.16;4929239;28;20639;-80
2021/08/25 09:44:44;;;;;;;4.28;3.65;;;;;;;22.51;47.30;97771.19;4954686;28;20092;-80
2021/08/25 09:47:10;;;;;;;4.47;3.38;;;;;;;22.20;46.66;97766.66;4939099;28;20037;-80
2021/08/25 09:49:36;;;;;;;4.18;3.80;;;;;;;22.56;46.85;97760.44;4948533;28;20031;-81
2021/08/25 09:52:02;;;;;;;4.10;3.38;;;;;;;23.04;46.11;97761.44;4953383;28;20073;-80
2021/08/25 09:54:28;;;;;;;3.80;3.50;;;;;;;23.47;44.93;97758.03;4922195;28;20081;-79
2021/08/25 09:56:54;;;;;;;3.83;3.22;;;;;;;23.49;45.08;97745.25;4938503;28;20084;-80
2021/08/25 09:59:20;;;;;;;3.63;3.30;;;;;;;23.63;46.54;97750.38;4922853;28;20037;-80
2021/08/25 10:01:47;;;;;;;3.65;3.33;;;;;;;23.72;44.98;97748.47;4937649;28;20434;-80
2021/08/25 10:04:16;;;;;;;4.88;3.88;;;;;;;23.93;44.79;97743.28;4918784;29;20128;-80
2021/08/25 10:06:43;;;;;;;4.40;4.00;;;;;;;24.57;44.44;97751.47;4928522;28;20449;-80
2021/08/25 10:09:09;;;;;;;4.72;3.53;;;;;;;25.03;43.28;97739.88;4926113;28;20027;-80
2021/08/25 10:11:45;;;;;;;4.18;3.72;;;;;;;24.66;41.87;97741.59;4937532;28;20038;-81
2021/08/25 10:14:12;;;;;;;4.78;3.83;;;;;;;25.00;41.35;97737.91;4938331;28;20061;-81
2021/08/25 10:16:46;;;;;;;3.63;3.25;;;;;;;24.86;42.72;97732.84;4910571;28;20503;-80
2021/08/25 10:19:38;;;;;;;4.85;3.33;;;;;;;24.99;41.33;97728.34;4931997;28;20043;-80
2021/08/25 10:22:16;;;;;;;4.55;3.35;;;;;;;25.03;41.03;97718.56;4920044;28;20037;-80
2021/08/25 10:24:54;;;;;;;5.70;3.30;;;;;;;24.76;40.65;97717.22;4936778;28;20070;-79
2021/08/25 10:27:20;;;;;;;4.50;3.53;;;;;;;24.86;40.94;97698.19;4937397;28;20034;-79
2021/08/25 10:30:01;;;;;;;4.38;3.05;;;;;;;23.40;42.82;97725.06;4945673;28;20085;-80
2021/08/25 10:32:27;;;;;;;5.80;3.60;;;;;;;23.27;42.07;97724.13;4935342;28;20031;-79
2021/08/25 10:35:10;;;;;;;5.78;3.97;;;;;;;23.69;42.18;97722.50;4955889;28;20035;-79
2021/08/25 10:37:36;;;;;;;6.35;3.63;;;;;;;23.87;41.39;97715.31;4952440;28;20042;-81
2021/08/25 10:40:03;;;;;;;4.25;3.30;;;;;;;23.68;41.37;97714.84;4918682;28;20031;-79
2021/08/25 10:42:55;;;;;;;7.70;4.22;;;;;;;23.75;41.83;97721.25;4920533;28;20027;-79
2021/08/25 10:45:39;;;;;;;3.35;3.05;;;;;;;24.43;41.27;97717.09;4917745;29;20403;-80
2021/08/25 10:48:09;;;;;;;3.65;3.28;;;;;;;24.34;40.61;97703.81;4919864;28;20506;-80
2021/08/25 10:50:54;;;;;;;4.22;3.70;;;;;;;24.20;40.67;97712.03;4963010;28;20066;-80
2021/08/25 10:53:29;;;;;;;4.97;3.57;;;;;;;24.75;39.19;97699.69;4918771;28;20038;-80
2021/08/25 10:56:27;;;;;;;3.40;2.97;;;;;;;24.45;39.77;97702.38;4952937;28;20735;-81
2021/08/25 10:59:04;;;;;;;3.90;3.30;;;;;;;24.44;38.46;97698.13;4940915;28;20182;-80
2021/08/25 11:01:35;;;;;;;3.80;3.35;;;;;;;24.77;36.72;97692.16;4913327;28;20093;-80
2021/08/25 11:04:07;;;;;;;3.72;2.97;;;;;;;24.79;37.14;97692.59;4936838;28;20069;-80
2021/08/25 11:06:42;;;;;;;5.68;3.28;;;;;;;24.46;37.33;97693.25;4937290;28;20109;-80
2021/08/25 11:09:24;;;;;;;3.58;3.00;;;;;;;24.14;36.58;97691.25;4937196;28;20031;-78
2021/08/25 11:11:49;;;;;;;3.85;3.38;;;;;;;24.41;36.99;97692.69;4936425;28;20469;-80
2021/08/25 11:14:17;;;;;;;4.32;3.55;;;;;;;24.79;36.00;97681.16;4952612;28;20027;-80
2021/08/25 11:16:42;;;;;;;3.90;3.40;;;;;;;25.04;35.46;97679.41;4937210;28;20544;-81
2021/08/25 11:19:07;;;;;;;4.25;3.17;;;;;;;24.84;34.78;97673.75;4936432;28;20038;-79
2021/08/25 11:21:33;;;;;;;3.35;2.80;;;;;;;25.09;35.75;97667.75;4936657;28;20486;-80
2021/08/25 11:23:58;;;;;;;4.30;3.30;;;;;;;25.41;35.31;97674.22;4942778;28;20316;-80
2021/08/25 11:26:29;;;;;;;5.40;3.60;;;;;;;25.35;35.90;97667.56;4938711;28;20035;-80
2021/08/25 11:28:55;;;;;;;3.65;3.00;;;;;;;25.65;34.98;97660.16;4936976;28;20520;-81
2021/08/25 11:31:26;;;;;;;4.00;3.60;;;;;;;25.64;33.96;97668.50;4945814;28;20038;-80